NCAR-RAP Real-Time Weather Data

Output produced by METARs form (12 August 2020  17:51 UTC)
found at http://weather.rap.ucar.edu/surface/
 
KRIC 121654Z 16005KT 10SM SCT034 BKN140 BKN230 32/23 A3002 RMK AO2 SLP167 CB DSNT NW T03170233
KRIC 121554Z 18008KT 10SM SCT026 BKN150 BKN300 31/24 A3003 RMK AO2 SLP170 T03110239
KRIC 121454Z 17004KT 10SM SCT021 SCT180 BKN300 29/24 A3004 RMK AO2 SLP174 T02940239 51002
KRIC 121354Z 00000KT 10SM FEW010 FEW180 SCT300 28/24 A3004 RMK AO2 SLP173 T02830244
KRIC 121254Z 00000KT 10SM FEW008 FEW180 SCT300 27/24 A3004 RMK AO2 SLP174 T02720239
KRIC 121210Z 00000KT 9SM FEW008 FEW180 SCT300 26/24 A3003 RMK AO2 T02560239
KRIC 121154Z 00000KT 8SM FEW180 SCT300 25/23 A3003 RMK AO2 SLP172 T02500233 10256 20233 51015
KRIC 121054Z 00000KT 8SM FEW180 FEW300 23/23 A3002 RMK AO2 SLP168 T02330228
KRIC 120954Z 00000KT 10SM FEW270 24/23 A3000 RMK AO2 SLP161 T02390228
KRIC 120854Z 00000KT 10SM CLR 24/23 A2999 RMK AO2 SLP157 T02390228 55001
KRIC 120754Z 00000KT 10SM CLR 24/23 A2999 RMK AO2 SLP156 T02440228
KRIC 120654Z 00000KT 10SM FEW060 25/23 A2998 RMK AO2 SLP154 T02500228
KRIC 120554Z 21006KT 10SM CLR 26/23 A2999 RMK AO2 SLP159 T02560228 10294 20250 53004
KRIC 120454Z 18004KT 10SM CLR 25/23 A2999 RMK AO2 SLP158 T02500228 403220217
KRIC 120354Z 19004KT 10SM FEW150 FEW300 26/23 A2998 RMK AO2 SLP154 T02610233
KRIC 120254Z 17007KT 10SM SCT150 SCT300 26/24 A2998 RMK AO2 SLP154 T02610239 51015
KRIC 120154Z 16005KT 10SM FEW038 FEW150 FEW300 27/24 A2997 RMK AO2 SLP151 T02670244
KRIC 120054Z 16003KT 10SM FEW038 FEW150 SCT300 28/24 A2995 RMK AO2 SLP146 T02830244
KRIC 112354Z 15004KT 10SM FEW038 SCT150 SCT300 29/24 A2993 RMK AO2 SLP139 TCU DSNT N T02890244 10322 20289 56001
KRIC 112254Z 15004KT 10SM SCT038 SCT140 BKN300 30/24 A2994 RMK AO2 SLP139 CB DSNT N AND E TCU DSNT S T03000239
KRIC 112154Z 18008KT 10SM SCT038 BKN140 BKN300 31/24 A2993 RMK AO2 SLP138 T03060239
KRIC 112054Z 19007KT 10SM SCT037TCU SCT150 SCT300 31/23 A2994 RMK AO2 SLP140 TCU N T03110228 56012
KRIC 111954Z 15007KT 10SM SCT038 SCT150 BKN300 32/23 A2994 RMK AO2 SLP142 T03170233
KRIC 111854Z 19009KT 10SM SCT033 BKN100 31/23 A2995 RMK AO2 SLP145 T03110228
KRIC 111754Z 19009KT 10SM SCT033 SCT100 31/23 A2997 RMK AO2 SLP152 T03110233 10311 20228 58012
KRIC 111654Z 18009KT 10SM FEW026 FEW100 SCT300 31/23 A2999 RMK AO2 SLP158 T03060233
KRIC 111554Z 20006KT 10SM FEW025 FEW300 29/23 A3000 RMK AO2 SLP161 T02940228
KRIC 111454Z VRB04KT 10SM FEW017 FEW300 28/23 A3001 RMK AO2 SLP163 T02830233 51010
KRIC 111354Z 17004KT 10SM FEW013 SCT300 26/23 A3000 RMK AO2 SLP164 T02610228
KRIC 111254Z 20004KT 9SM FEW007 SCT300 24/22 A2999 RMK AO2 SLP160 T02440222
KRIC 111233Z 20005KT 8SM SCT005 SCT300 24/23 A2999 RMK AO2 T02390228
KRIC 111202Z 15005KT 5SM BR BKN004 BKN300 23/22 A2998 RMK AO2 T02280222
KRIC 111154Z 17005KT 6SM BR SCT004 SCT300 23/22 A2998 RMK AO2 SLP154 T02280217 10228 20217 51003
KRIC 111143Z 18003KT 6SM BR BKN004 BKN300 23/22 A2998 RMK AO2 T02280217
KRIC 111054Z 14005KT 7SM FEW005 FEW300 22/21 A2997 RMK AO2 SLP152 T02170211
KRIC 110954Z 18004KT 10SM FEW250 22/21 A2997 RMK AO2 SLP151 T02170206
KRIC 110854Z 16003KT 10SM CLR 22/21 A2997 RMK AO2 SLP150 T02220211 56010
KRIC 110754Z 00000KT 10SM CLR 22/21 A2997 RMK AO2 SLP151 T02220211
KRIC 110654Z 19003KT 10SM CLR 23/21 A2998 RMK AO2 SLP155 T02280211
KRIC 110554Z 00000KT 10SM CLR 23/22 A3000 RMK AO2 SLP160 T02280217 10289 20228 50005
KRIC 110454Z 00000KT 10SM FEW100 23/22 A3000 RMK AO2 SLP161 T02330217 403220228
KRIC 110354Z 13004KT 10SM FEW100 SCT300 23/22 A3000 RMK AO2 SLP162 T02330222
KRIC 110254Z 00000KT 10SM FEW075 FEW100 SCT300 25/23 A2998 RMK AO2 SLP155 T02500228 58003
KRIC 110154Z 16005KT 10SM FEW045 FEW075 SCT110 BKN300 25/22 A2998 RMK AO2 TSE25 SLP156 T02500222
KRIC 110131Z 17005KT 10SM FEW045 SCT075 SCT200 BKN300 25/22 A2998 RMK AO2 TSE25 T02500222
KRIC 110054Z 15011KT 10SM TS SCT036CB SCT070 SCT200 BKN300 27/22 A2999 RMK AO2 TSB47 SLP158 OCNL LTGIC SE TS SE MOV N T02670222
KRIC 102354Z 23010KT 10SM FEW047 SCT070TCU SCT200 SCT300 28/23 A2997 RMK AO2 SLP152 TCU E CB DSNT SE T02830233 10317 20278 56007
KRIC 102254Z 09004KT 10SM FEW050 SCT210 SCT300 31/22 A2998 RMK AO2 SLP153 CB DSNT S TCU DSNT E T03060217
KRIC 102154Z 19003KT 10SM FEW045 FEW085 SCT210 BKN300 32/19 A2999 RMK AO2 SLP157 T03170189
KRIC 102054Z 14005KT 10SM FEW045 FEW085 SCT210 BKN300 31/21 A2999 RMK AO2 SLP159 T03060206 56020
KRIC 101954Z 18012G20KT 10SM FEW045 FEW085 SCT240 BKN300 31/22 A3001 RMK AO2 SLP165 T03060217
KRIC 101854Z 27014KT 10SM SCT045 SCT060 BKN240 BKN300 28/21 A3003 RMK AO2 TSE09 SLP172 CB DSNT W T02830211
KRIC 101810Z 17005KT 10SM SCT044 BKN210 BKN300 31/22 A3004 RMK AO2 TSE09 CB DSNT W T03060222
KRIC 101754Z 16005KT 10SM TS SCT042CB BKN220 BKN300 31/22 A3005 RMK AO2 TSB48 SLP179 FRQ LTGCG NW TS NW MOV NE CB DSNT W T03060217 10322 20244 57006